| time (UTC) | temp F | wind direction | speed MPH | gust MPH | rain 1hr in | rain 24hr in | rain mn in | humidity % | barometer mb |
| 20260904001002 | 67 | 223 | 2.0 | 5.0 | 0.00 | 0.00 | 0.00 | 84 | 1019.4 |
| 20260904000002 | 68 | 215 | 2.0 | 6.0 | 0.00 | 0.00 | 0.00 | 84 | 1019.3 |
| 20260903235000 | 68 | 239 | 3.0 | 8.0 | 0.00 | 0.00 | 0.00 | 83 | 1019.5 |
| 20260903234003 | 68 | 239 | 3.0 | 8.0 | 0.00 | 0.00 | 0.00 | 83 | 1019.5 |
| 20260903233001 | 68 | 209 | 2.0 | 7.0 | 0.00 | 0.00 | 0.00 | 83 | 1019.5 |
| 20260903232000 | 69 | 222 | 3.0 | 6.0 | 0.00 | 0.00 | 0.00 | 83 | 1019.4 |
| 20260903231001 | 69 | 226 | 3.0 | 7.0 | 0.00 | 0.00 | 0.00 | 82 | 1019.5 |
| 20260903230000 | 69 | 207 | 3.0 | 6.0 | 0.00 | 0.00 | 0.00 | 82 | 1019.6 |
| 20260903225002 | 69 | 210 | 2.0 | 6.0 | 0.00 | 0.00 | 0.00 | 81 | 1019.7 |
| 20260903224000 | 69 | 223 | 2.0 | 7.0 | 0.00 | 0.00 | 0.00 | 81 | 1019.8 |
| 20260903223001 | 69 | 216 | 3.0 | 6.0 | 0.00 | 0.00 | 0.00 | 81 | 1020.0 |
| 20260903222002 | 69 | 222 | 2.0 | 6.0 | 0.00 | 0.00 | 0.00 | 81 | 1020.1 |
| 20260903221002 | 69 | 218 | 3.0 | 6.0 | 0.00 | 0.00 | 0.00 | 81 | 1020.0 |
| 20260903220000 | 69 | 220 | 3.0 | 6.0 | 0.00 | 0.00 | 0.00 | 81 | 1020.2 |
| 20260903215002 | 70 | 220 | 3.0 | 6.0 | 0.00 | 0.00 | 0.00 | 81 | 1020.1 |
| 20260903214002 | 70 | 218 | 2.0 | 6.0 | 0.00 | 0.00 | 0.00 | 80 | 1020.2 |
| 20260903213000 | 70 | 219 | 2.0 | 4.0 | 0.00 | 0.00 | 0.00 | 79 | 1020.3 |
| 20260903212003 | 70 | 225 | 2.0 | 6.0 | 0.00 | 0.00 | 0.00 | 79 | 1020.3 |
| 20260903211000 | 70 | 217 | 3.0 | 6.0 | 0.00 | 0.00 | 0.00 | 79 | 1020.3 |
| 20260903210003 | 71 | 216 | 3.0 | 6.0 | 0.00 | 0.00 | 0.00 | 78 | 1020.3 |
| 20260903205002 | 71 | 222 | 3.0 | 9.0 | 0.00 | 0.00 | 0.00 | 78 | 1020.3 |
| 20260903204002 | 71 | 237 | 3.0 | 7.0 | 0.00 | 0.00 | 0.00 | 77 | 1020.4 |
| 20260903203002 | 71 | 232 | 3.0 | 7.0 | 0.00 | 0.00 | 0.00 | 77 | 1020.4 |
| 20260903202002 | 71 | 243 | 3.0 | 11.0 | 0.00 | 0.00 | 0.00 | 77 | 1020.4 |
| 20260903201002 | 71 | 240 | 4.0 | 9.0 | 0.00 | 0.00 | 0.00 | 77 | 1020.2 |
| 20260903200001 | 71 | 237 | 3.0 | 6.0 | 0.00 | 0.00 | 0.00 | 76 | 1020.2 |
| 20260903195002 | 71 | 218 | 2.0 | 6.0 | 0.00 | 0.00 | 0.00 | 74 | 1020.2 |
| 20260903194000 | 71 | 216 | 2.0 | 4.0 | 0.00 | 0.00 | 0.00 | 74 | 1020.1 |
| 20260903193002 | 72 | 166 | 1.0 | 4.0 | 0.00 | 0.00 | 0.00 | 73 | 1020.2 |
| 20260903192002 | 72 | 233 | 2.0 | 4.0 | 0.00 | 0.00 | 0.00 | 72 | 1020.5 |
| 20260903191000 | 72 | 233 | 2.0 | 4.0 | 0.00 | 0.00 | 0.00 | 72 | 1020.4 |
| 20260903190001 | 73 | 222 | 1.0 | 4.0 | 0.00 | 0.00 | 0.00 | 71 | 1020.2 |
| 20260903185002 | 73 | 222 | 1.0 | 4.0 | 0.00 | 0.00 | 0.00 | 71 | 1020.2 |
| 20260903184002 | 73 | 240 | 1.0 | 3.0 | 0.00 | 0.00 | 0.00 | 70 | 1020.2 |
| 20260903183002 | 74 | 258 | 2.0 | 3.0 | 0.00 | 0.00 | 0.00 | 70 | 1020.3 |
| 20260903182002 | 74 | 252 | 4.0 | 7.0 | 0.00 | 0.00 | 0.00 | 70 | 1020.0 |
| 20260903181002 | 74 | 255 | 4.0 | 8.0 | 0.00 | 0.00 | 0.00 | 69 | 1020.3 |
| 20260903180002 | 74 | 266 | 2.0 | 6.0 | 0.00 | 0.00 | 0.00 | 69 | 1020.3 |
| 20260903175004 | 75 | 233 | 2.0 | 6.0 | 0.00 | 0.00 | 0.00 | 68 | 1020.1 |
| 20260903174000 | 75 | 241 | 2.0 | 6.0 | 0.00 | 0.00 | 0.00 | 67 | 1020.2 |
| 20260903173000 | 75 | 255 | 2.0 | 4.0 | 0.00 | 0.00 | 0.00 | 67 | 1020.1 |
| 20260903172000 | 76 | 289 | 3.0 | 6.0 | 0.00 | 0.00 | 0.00 | 66 | 1020.2 |
| 20260903171003 | 76 | 290 | 4.0 | 8.0 | 0.00 | 0.00 | 0.00 | 65 | 1020.1 |
| 20260903170001 | 76 | 259 | 4.0 | 11.0 | 0.00 | 0.00 | 0.00 | 65 | 1020.1 |
| 20260903165000 | 77 | 281 | 5.0 | 10.0 | 0.00 | 0.00 | 0.00 | 64 | 1020.0 |
| 20260903164000 | 77 | 257 | 5.0 | 10.0 | 0.00 | 0.00 | 0.00 | 64 | 1019.9 |
| 20260903163002 | 77 | 294 | 7.0 | 17.0 | 0.00 | 0.00 | 0.00 | 63 | 1020.0 |
| 20260903162002 | 78 | 277 | 6.0 | 14.0 | 0.00 | 0.00 | 0.00 | 62 | 1019.9 |
| 20260903161001 | 78 | 277 | 7.0 | 12.0 | 0.00 | 0.00 | 0.00 | 61 | 1019.9 |
| 20260903155001 | 78 | 277 | 4.0 | 11.0 | 0.00 | 0.00 | 0.00 | 62 | 1019.7 |
| 20260903154000 | 78 | 281 | 5.0 | 12.0 | 0.00 | 0.00 | 0.00 | 62 | 1019.7 |
| 20260903153002 | 78 | 283 | 6.0 | 16.0 | 0.00 | 0.00 | 0.00 | 62 | 1019.8 |
| 20260903152002 | 78 | 276 | 6.0 | 14.0 | 0.00 | 0.00 | 0.00 | 62 | 1019.8 |
| 20260903151000 | 78 | 301 | 6.0 | 9.0 | 0.00 | 0.00 | 0.00 | 62 | 1019.9 |
| 20260903150002 | 78 | 298 | 7.0 | 14.0 | 0.00 | 0.00 | 0.00 | 62 | 1019.9 |
| 20260903145002 | 78 | 307 | 6.0 | 11.0 | 0.00 | 0.00 | 0.00 | 62 | 1019.9 |
| 20260903144002 | 78 | 308 | 9.0 | 15.0 | 0.00 | 0.00 | 0.00 | 61 | 1019.8 |
| 20260903143000 | 78 | 297 | 8.0 | 16.0 | 0.00 | 0.00 | 0.00 | 60 | 1019.7 |
| 20260903142002 | 78 | 302 | 6.0 | 10.0 | 0.00 | 0.00 | 0.00 | 61 | 1019.6 |
| 20260903141001 | 77 | 302 | 6.0 | 11.0 | 0.00 | 0.00 | 0.00 | 62 | 1019.6 |
| 20260903140002 | 77 | 290 | 6.0 | 12.0 | 0.00 | 0.00 | 0.00 | 62 | 1019.5 |
| 20260903135002 | 77 | 308 | 9.0 | 17.0 | 0.00 | 0.00 | 0.00 | 62 | 1019.6 |
| 20260903134000 | 77 | 281 | 7.0 | 17.0 | 0.00 | 0.00 | 0.00 | 61 | 1019.6 |
| 20260903133002 | 77 | 281 | 7.0 | 17.0 | 0.00 | 0.00 | 0.00 | 61 | 1019.6 |
| 20260903132002 | 77 | 290 | 6.0 | 12.0 | 0.00 | 0.00 | 0.00 | 59 | 1019.5 |
| 20260903131002 | 76 | 310 | 7.0 | 19.0 | 0.00 | 0.00 | 0.00 | 59 | 1019.4 |
| 20260903130002 | 76 | 307 | 7.0 | 13.0 | 0.00 | 0.00 | 0.00 | 59 | 1019.4 |
| 20260903125002 | 76 | 281 | 7.0 | 14.0 | 0.00 | 0.00 | 0.00 | 59 | 1019.6 |
| 20260903124000 | 76 | 252 | 4.0 | 14.0 | 0.00 | 0.00 | 0.00 | 58 | 1019.6 |
| 20260903123002 | 75 | 258 | 3.0 | 7.0 | 0.00 | 0.00 | 0.00 | 59 | 1019.5 |
| 20260903122002 | 75 | 288 | 6.0 | 12.0 | 0.00 | 0.00 | 0.00 | 58 | 1019.6 |
| 20260903121002 | 74 | 261 | 6.0 | 11.0 | 0.00 | 0.00 | 0.00 | 58 | 1019.5 |
| 20260903120002 | 74 | 236 | 4.0 | 15.0 | 0.00 | 0.00 | 0.00 | 60 | 1019.7 |
| 20260903115000 | 74 | 236 | 4.0 | 15.0 | 0.00 | 0.00 | 0.00 | 60 | 1019.7 |
| 20260903114000 | 73 | 223 | 4.0 | 12.0 | 0.00 | 0.00 | 0.00 | 60 | 1019.8 |
| 20260903113001 | 73 | 232 | 2.0 | 6.0 | 0.00 | 0.00 | 0.00 | 60 | 1019.9 |
| 20260903112000 | 73 | 232 | 2.0 | 6.0 | 0.00 | 0.00 | 0.00 | 60 | 1019.9 |
| 20260903111000 | 72 | 219 | 4.0 | 7.0 | 0.00 | 0.00 | 0.00 | 60 | 1020.0 |
| 20260903110000 | 72 | 216 | 4.0 | 9.0 | 0.00 | 0.00 | 0.00 | 61 | 1020.1 |
| 20260903105002 | 72 | 216 | 4.0 | 9.0 | 0.00 | 0.00 | 0.00 | 61 | 1020.1 |
| 20260903104002 | 72 | 213 | 4.0 | 7.0 | 0.00 | 0.00 | 0.00 | 62 | 1020.2 |
| 20260903103001 | 72 | 222 | 3.0 | 7.0 | 0.00 | 0.00 | 0.00 | 63 | 1020.1 |
| 20260903102000 | 72 | 222 | 3.0 | 7.0 | 0.00 | 0.00 | 0.00 | 63 | 1020.1 |
| 20260903101000 | 72 | 219 | 5.0 | 12.0 | 0.00 | 0.00 | 0.00 | 59 | 1020.0 |
| 20260903100002 | 72 | 216 | 4.0 | 11.0 | 0.00 | 0.00 | 0.00 | 60 | 1020.0 |
| 20260903095001 | 71 | 209 | 5.0 | 11.0 | 0.00 | 0.00 | 0.00 | 60 | 1020.0 |
| 20260903094001 | 71 | 206 | 5.0 | 9.0 | 0.00 | 0.00 | 0.00 | 61 | 1020.0 |
| 20260903093002 | 70 | 216 | 6.0 | 11.0 | 0.00 | 0.00 | 0.00 | 63 | 1020.2 |
| 20260903092004 | 70 | 216 | 6.0 | 11.0 | 0.00 | 0.00 | 0.00 | 63 | 1020.2 |
| 20260903091002 | 69 | 191 | 4.0 | 9.0 | 0.00 | 0.00 | 0.00 | 64 | 1020.3 |
| 20260903090002 | 68 | 203 | 5.0 | 10.0 | 0.00 | 0.00 | 0.00 | 64 | 1020.2 |
| 20260903085002 | 67 | 202 | 4.0 | 10.0 | 0.00 | 0.00 | 0.00 | 65 | 1020.2 |
| 20260903084001 | 67 | 190 | 4.0 | 8.0 | 0.00 | 0.00 | 0.00 | 66 | 1020.2 |
| 20260903083002 | 66 | 193 | 4.0 | 7.0 | 0.00 | 0.00 | 0.00 | 68 | 1020.4 |
| 20260903082000 | 66 | 195 | 3.0 | 7.0 | 0.00 | 0.00 | 0.00 | 69 | 1020.4 |
| 20260903081002 | 65 | 186 | 4.0 | 10.0 | 0.00 | 0.00 | 0.00 | 69 | 1020.3 |
| 20260903080002 | 65 | 192 | 4.0 | 11.0 | 0.00 | 0.00 | 0.00 | 70 | 1020.6 |
| 20260903075001 | 64 | 178 | 3.0 | 7.0 | 0.00 | 0.00 | 0.00 | 71 | 1020.4 |
| 20260903074002 | 62 | 192 | 2.0 | 6.0 | 0.00 | 0.00 | 0.00 | 74 | 1020.8 |
| 20260903073001 | 62 | 192 | 2.0 | 6.0 | 0.00 | 0.00 | 0.00 | 74 | 1020.8 |
| 20260903072002 | 62 | 192 | 2.0 | 6.0 | 0.00 | 0.00 | 0.00 | 74 | 1020.8 |
| 20260903071001 | 62 | 192 | 2.0 | 6.0 | 0.00 | 0.00 | 0.00 | 74 | 1020.8 |
| 20260903070000 | 62 | 192 | 2.0 | 6.0 | 0.00 | 0.00 | 0.00 | 74 | 1020.8 |
| 20260903065002 | 62 | 192 | 2.0 | 6.0 | 0.00 | 0.00 | 0.00 | 74 | 1020.8 |
| 20260903064002 | 62 | 206 | 2.0 | 6.0 | 0.00 | 0.00 | 0.00 | 74 | 1020.9 |
| 20260903063001 | 62 | 213 | 2.0 | 4.0 | 0.00 | 0.00 | 0.00 | 75 | 1020.8 |
| 20260903062002 | 61 | 202 | 1.0 | 4.0 | 0.00 | 0.00 | 0.00 | 77 | 1020.8 |
| 20260903061002 | 61 | 190 | 1.0 | 3.0 | 0.00 | 0.00 | 0.00 | 77 | 1020.8 |
| 20260903060002 | 60 | 182 | 2.0 | 4.0 | 0.00 | 0.00 | 0.00 | 77 | 1020.9 |
| 20260903055002 | 60 | 162 | 1.0 | 2.0 | 0.00 | 0.00 | 0.00 | 77 | 1021.2 |
| 20260903054002 | 59 | 170 | 1.0 | 3.0 | 0.00 | 0.00 | 0.00 | 77 | 1021.2 |
| 20260903053000 | 59 | 158 | 2.0 | 4.0 | 0.00 | 0.00 | 0.00 | 77 | 1021.0 |
| 20260903052002 | 59 | 199 | 1.0 | 3.0 | 0.00 | 0.00 | 0.00 | 77 | 1020.9 |
| 20260903051002 | 59 | 181 | 1.0 | 3.0 | 0.00 | 0.00 | 0.00 | 77 | 1020.7 |
| 20260903050002 | 59 | 187 | 1.0 | 4.0 | 0.00 | 0.00 | 0.00 | 77 | 1020.8 |
| 20260903045001 | 60 | 221 | 1.0 | 4.0 | 0.00 | 0.00 | 0.00 | 77 | 1020.8 |
| 20260903044000 | 60 | 230 | 1.0 | 3.0 | 0.00 | 0.00 | 0.00 | 77 | 1020.9 |
| 20260903043001 | 60 | 218 | 2.0 | 5.0 | 0.00 | 0.00 | 0.00 | 77 | 1021.0 |
| 20260903042002 | 60 | 197 | 2.0 | 4.0 | 0.00 | 0.00 | 0.00 | 77 | 1021.2 |
| 20260903041000 | 60 | 220 | 1.0 | 3.0 | 0.00 | 0.00 | 0.00 | 77 | 1021.4 |
| 20260903040002 | 60 | 191 | 1.0 | 3.0 | 0.00 | 0.00 | 0.00 | 77 | 1021.4 |
| 20260903035000 | 60 | 202 | 1.0 | 2.0 | 0.00 | 0.00 | 0.00 | 76 | 1021.4 |
| 20260903034002 | 60 | 215 | 1.0 | 3.0 | 0.00 | 0.00 | 0.00 | 76 | 1021.3 |
| 20260903033000 | 60 | 225 | 1.0 | 2.0 | 0.00 | 0.00 | 0.00 | 76 | 1021.3 |
| 20260903032001 | 60 | 222 | 1.0 | 3.0 | 0.00 | 0.00 | 0.00 | 76 | 1021.2 |
| 20260903031001 | 60 | 194 | 1.0 | 3.0 | 0.00 | 0.00 | 0.00 | 76 | 1021.3 |
| 20260903030001 | 60 | 0 | 0.0 | 2.0 | 0.00 | 0.00 | 0.00 | 76 | 1021.4 |
| 20260903025001 | 60 | 90 | 1.0 | 2.0 | 0.00 | 0.00 | 0.00 | 76 | 1021.4 |
| 20260903024000 | 60 | 123 | 1.0 | 2.0 | 0.00 | 0.00 | 0.00 | 76 | 1021.5 |
| 20260903023002 | 60 | 183 | 1.0 | 2.0 | 0.00 | 0.00 | 0.00 | 76 | 1021.6 |
| 20260903022001 | 60 | 228 | 1.0 | 2.0 | 0.00 | 0.00 | 0.00 | 76 | 1021.8 |
| 20260903021002 | 60 | 225 | 1.0 | 2.0 | 0.00 | 0.00 | 0.00 | 76 | 1021.7 |
| 20260903020002 | 60 | 236 | 1.0 | 2.0 | 0.00 | 0.00 | 0.00 | 76 | 1021.6 |
| 20260903015002 | 59 | 210 | 1.0 | 2.0 | 0.00 | 0.00 | 0.00 | 76 | 1021.8 |
| 20260903014002 | 59 | 240 | 1.0 | 4.0 | 0.00 | 0.00 | 0.00 | 76 | 1021.9 |
| 20260903013001 | 59 | 229 | 1.0 | 3.0 | 0.00 | 0.00 | 0.00 | 76 | 1021.9 |
| 20260903012000 | 59 | 270 | 1.0 | 2.0 | 0.00 | 0.00 | 0.00 | 75 | 1022.0 |
| 20260903011002 | 59 | 168 | 1.0 | 2.0 | 0.00 | 0.00 | 0.00 | 75 | 1021.9 |
| 20260903010002 | 59 | 225 | 1.0 | 2.0 | 0.00 | 0.00 | 0.00 | 74 | 1022.0 |
| 20260903005001 | 59 | 188 | 1.0 | 2.0 | 0.00 | 0.00 | 0.00 | 74 | 1022.0 |
| 20260903004001 | 59 | 135 | 1.0 | 1.0 | 0.00 | 0.00 | 0.00 | 74 | 1022.2 |
| 20260903003001 | 59 | 331 | 1.0 | 1.0 | 0.00 | 0.00 | 0.00 | 73 | 1022.2 |
| 20260903002003 | 59 | 186 | 1.0 | 2.0 | 0.00 | 0.00 | 0.00 | 73 | 1022.1 |